createdAt,value
2023-05-19T00:02:45.500Z,1.08
2023-05-19T00:05:48.729Z,0.80
2023-05-19T00:08:53.939Z,1.10
2023-05-19T00:11:58.360Z,1.13
2023-05-19T00:15:01.272Z,0.90
2023-05-19T00:18:03.726Z,1.20
2023-05-19T00:21:06.260Z,0.95
2023-05-19T00:24:08.627Z,1.00
2023-05-19T00:27:12.235Z,1.33
2023-05-19T00:30:15.338Z,1.00
2023-05-19T00:33:17.745Z,1.15
2023-05-19T00:36:20.013Z,1.02
2023-05-19T00:39:22.298Z,1.00
2023-05-19T00:42:26.041Z,1.20
2023-05-19T00:45:29.024Z,1.15
2023-05-19T00:48:31.348Z,1.20
2023-05-19T00:51:33.652Z,1.00
2023-05-19T00:54:36.238Z,1.05
2023-05-19T00:57:39.964Z,1.67
2023-05-19T01:00:43.247Z,1.30
2023-05-19T01:03:47.167Z,1.10
2023-05-19T01:06:54.771Z,1.23
2023-05-19T01:09:57.564Z,1.38
2023-05-19T01:13:01.968Z,1.08
2023-05-19T01:16:08.078Z,1.27
2023-05-19T01:19:16.091Z,1.23
2023-05-19T01:22:27.038Z,1.10
2023-05-19T01:25:55.569Z,1.08
2023-05-19T01:29:27.359Z,1.38
2023-05-19T01:32:32.177Z,1.35
2023-05-19T01:35:36.231Z,1.20
2023-05-19T01:38:39.162Z,1.35
2023-05-19T01:41:42.616Z,1.27
2023-05-19T01:44:45.581Z,1.40
2023-05-19T01:47:51.866Z,1.33
2023-05-19T01:50:57.149Z,1.17
2023-05-19T01:53:59.719Z,1.50
2023-05-19T01:57:11.536Z,1.13
2023-05-19T02:00:19.294Z,1.52
2023-05-19T02:03:43.142Z,1.10
2023-05-19T02:06:53.742Z,2.42
2023-05-19T02:10:02.672Z,1.45
2023-05-19T02:13:06.070Z,1.45
2023-05-19T02:16:08.534Z,1.30
2023-05-19T02:19:22.281Z,1.45
2023-05-19T02:22:24.765Z,1.45
2023-05-19T02:25:27.197Z,1.65
2023-05-19T02:28:29.420Z,1.20
2023-05-19T02:31:33.989Z,1.20
2023-05-19T02:34:37.733Z,1.30
2023-05-19T02:37:40.580Z,1.10
2023-05-19T02:40:42.862Z,1.25
2023-05-19T02:43:45.700Z,1.38
2023-05-19T02:46:48.331Z,1.27
2023-05-19T02:49:52.142Z,1.30
2023-05-19T02:52:54.462Z,1.45
2023-05-19T02:55:56.750Z,1.40
2023-05-19T02:58:58.932Z,1.40
2023-05-19T03:02:02.092Z,1.17
2023-05-19T03:05:07.906Z,1.42
2023-05-19T03:08:10.461Z,1.52
2023-05-19T03:11:12.739Z,1.20
2023-05-19T03:14:14.986Z,1.33
2023-05-19T03:17:17.329Z,1.60
2023-05-19T03:20:20.998Z,1.63
2023-05-19T03:23:23.313Z,1.30
2023-05-19T03:26:26.165Z,1.45
2023-05-19T03:29:28.387Z,1.30
2023-05-19T03:32:32.776Z,1.40
2023-05-19T03:35:36.646Z,1.80
2023-05-19T03:38:39.133Z,1.85
2023-05-19T03:41:41.384Z,1.45
2023-05-19T03:44:44.625Z,1.25
2023-05-19T03:47:47.944Z,1.50
2023-05-19T03:51:14.372Z,1.80
2023-05-19T03:54:17.029Z,1.33
2023-05-19T03:57:19.345Z,1.70
2023-05-19T04:00:23.001Z,1.42
2023-05-19T04:03:26.706Z,1.58
2023-05-19T04:06:31.019Z,1.25
2023-05-19T04:09:35.346Z,1.13
2023-05-19T04:12:37.631Z,1.73
2023-05-19T04:15:41.029Z,1.50
2023-05-19T04:18:46.394Z,1.65
2023-05-19T04:21:50.067Z,1.40
2023-05-19T04:24:53.088Z,1.63
2023-05-19T04:27:57.715Z,1.23
2023-05-19T04:31:01.271Z,1.33
2023-05-19T04:34:03.826Z,1.67
2023-05-19T04:37:07.896Z,1.10
2023-05-19T04:40:13.011Z,1.40
2023-05-19T04:43:18.042Z,1.23
2023-05-19T04:46:24.429Z,1.23
2023-05-19T04:49:28.426Z,1.30
2023-05-19T04:52:32.157Z,1.30
2023-05-19T04:55:34.705Z,1.02
2023-05-19T04:58:38.742Z,1.13
2023-05-19T05:01:43.124Z,1.40
2023-05-19T05:04:48.197Z,1.20
2023-05-19T05:07:54.045Z,1.35
2023-05-19T05:10:58.344Z,1.80
2023-05-19T05:14:02.303Z,1.15
2023-05-19T05:17:06.502Z,1.05
2023-05-19T05:20:11.784Z,0.95
2023-05-19T05:23:16.696Z,1.02
2023-05-19T05:26:23.296Z,1.08
2023-05-19T05:29:29.821Z,0.98
2023-05-19T05:32:32.355Z,1.48
2023-05-19T05:35:36.833Z,1.30
2023-05-19T05:38:41.877Z,0.80
2023-05-19T05:41:44.171Z,1.00
2023-05-19T05:44:47.912Z,0.90
2023-05-19T05:47:51.352Z,0.88
2023-05-19T05:50:54.642Z,0.98
2023-05-19T05:54:02.113Z,1.00
2023-05-19T05:57:12.508Z,0.75
2023-05-19T06:00:16.839Z,0.90
2023-05-19T06:03:26.811Z,1.00
2023-05-19T06:06:31.166Z,0.70
2023-05-19T06:09:34.959Z,1.13
2023-05-19T06:12:43.175Z,0.98
2023-05-19T06:15:46.959Z,0.80
2023-05-19T06:18:59.027Z,1.20
2023-05-19T06:22:01.686Z,0.73
2023-05-19T06:25:09.932Z,0.60
2023-05-19T06:28:12.318Z,0.77
2023-05-19T06:31:14.866Z,1.13
2023-05-19T06:34:26.738Z,0.73
2023-05-19T06:37:29.863Z,0.60
2023-05-19T06:40:34.241Z,0.73
2023-05-19T06:43:36.736Z,0.45
2023-05-19T06:46:39.484Z,0.50
2023-05-19T06:49:42.542Z,0.40
2023-05-19T06:52:46.987Z,0.68
2023-05-19T06:55:58.882Z,0.40
2023-05-19T06:59:05.809Z,0.45
2023-05-19T07:02:11.767Z,0.35
2023-05-19T07:05:14.430Z,0.40
2023-05-19T07:08:19.471Z,0.40
2023-05-19T07:11:23.163Z,0.50
2023-05-19T07:14:25.643Z,0.50
2023-05-19T07:17:27.925Z,0.50
2023-05-19T07:20:30.561Z,0.40
2023-05-19T07:23:33.471Z,0.40
2023-05-19T07:26:37.495Z,0.32
2023-05-19T07:29:40.042Z,0.40
2023-05-19T07:32:42.602Z,0.50
2023-05-19T07:35:45.651Z,0.40
2023-05-19T07:38:48.048Z,0.47
2023-05-19T07:41:55.805Z,0.50
2023-05-19T07:44:58.795Z,0.45
2023-05-19T07:48:01.212Z,0.50
2023-05-19T07:51:04.000Z,0.30
2023-05-19T07:54:08.278Z,0.40
2023-05-19T07:57:11.945Z,0.73
2023-05-19T08:00:15.223Z,0.40
2023-05-19T08:03:18.395Z,0.40
2023-05-19T08:06:21.170Z,0.30
2023-05-19T08:09:23.523Z,0.50
2023-05-19T08:12:28.063Z,0.47
2023-05-19T08:15:30.444Z,0.55
2023-05-19T08:18:32.942Z,0.47
2023-05-19T08:21:35.444Z,0.47
2023-05-19T08:24:38.890Z,0.60
2023-05-19T08:27:42.489Z,0.40
2023-05-19T08:30:44.726Z,0.60
2023-05-19T08:33:47.106Z,0.43
2023-05-19T08:36:49.522Z,0.40
2023-05-19T08:39:51.883Z,0.50
2023-05-19T08:42:55.926Z,0.57
2023-05-19T08:46:00.594Z,0.43
2023-05-19T08:49:07.254Z,0.50
2023-05-19T08:52:16.549Z,0.50
2023-05-19T08:55:29.738Z,0.47
2023-05-19T08:58:33.931Z,0.40
2023-05-19T09:04:40.429Z,0.38
2023-05-19T09:07:43.697Z,0.45
2023-05-19T09:10:46.190Z,0.40
2023-05-19T09:13:49.995Z,0.50
2023-05-19T09:16:53.009Z,0.40
2023-05-19T09:19:55.403Z,0.40
2023-05-19T09:22:59.931Z,0.40
2023-05-19T09:26:07.629Z,0.50
2023-05-19T09:29:15.915Z,0.40
2023-05-19T09:32:25.029Z,0.45
2023-05-19T09:35:27.720Z,0.45
2023-05-19T09:38:30.075Z,0.28
2023-05-19T09:41:33.128Z,0.50
2023-05-19T09:44:36.727Z,0.40
2023-05-19T09:47:41.147Z,0.40
2023-05-19T09:50:45.481Z,0.30
2023-05-19T09:53:48.299Z,0.55
2023-05-19T09:56:58.714Z,0.40
2023-05-19T10:00:08.548Z,0.40
2023-05-19T10:03:11.894Z,0.38
2023-05-19T10:06:15.570Z,0.47
2023-05-19T10:09:18.126Z,0.40
2023-05-19T10:12:20.812Z,0.30
2023-05-19T10:15:25.010Z,0.50
2023-05-19T10:18:29.313Z,0.43
2023-05-19T10:21:31.662Z,0.50
2023-05-19T10:24:33.967Z,0.40
2023-05-19T10:27:37.185Z,0.77
2023-05-19T10:30:43.557Z,0.50
2023-05-19T10:33:59.884Z,0.40
2023-05-19T10:37:12.052Z,0.40
2023-05-19T10:40:21.895Z,0.40
2023-05-19T10:43:34.226Z,0.40
2023-05-19T10:46:40.036Z,0.30
2023-05-19T10:49:42.319Z,0.57
2023-05-19T10:52:44.733Z,0.57
2023-05-19T10:55:50.454Z,0.60
2023-05-19T10:58:53.000Z,0.40
2023-05-19T11:01:56.861Z,0.30
2023-05-19T11:05:09.235Z,0.30
2023-05-19T11:08:12.113Z,0.40
2023-05-19T11:11:14.912Z,0.47
2023-05-19T11:14:18.408Z,0.40
2023-05-19T11:17:23.638Z,0.50
2023-05-19T11:20:27.552Z,0.40
2023-05-19T11:23:34.760Z,0.40
2023-05-19T11:26:42.287Z,0.40
2023-05-19T11:29:44.580Z,0.35
2023-05-19T11:32:48.631Z,0.40
2023-05-19T11:35:51.752Z,0.50
2023-05-19T11:38:54.065Z,0.43
2023-05-19T11:41:56.259Z,0.32
2023-05-19T11:44:58.465Z,0.40
2023-05-19T11:48:03.452Z,0.50
2023-05-19T11:51:06.464Z,0.30
2023-05-19T11:54:08.705Z,0.30
2023-05-19T11:57:11.157Z,0.40
2023-05-19T12:00:14.697Z,0.40
2023-05-19T12:03:21.615Z,0.40
2023-05-19T12:06:25.929Z,0.30
2023-05-19T12:09:28.782Z,0.40
2023-05-19T12:12:32.003Z,0.40
2023-05-19T12:15:35.283Z,0.40
2023-05-19T12:18:41.054Z,0.40
2023-05-19T12:21:43.536Z,0.50
2023-05-19T12:24:46.663Z,0.50
2023-05-19T12:27:49.655Z,0.40
2023-05-19T12:30:52.617Z,0.30
2023-05-19T12:33:56.317Z,0.30
2023-05-19T12:36:58.615Z,0.40
2023-05-19T12:40:01.515Z,0.50
2023-05-19T12:43:04.027Z,0.52
2023-05-19T12:46:12.994Z,0.38
2023-05-19T12:49:17.025Z,0.32
2023-05-19T12:52:19.748Z,0.43
2023-05-19T12:55:23.153Z,0.38
2023-05-19T12:58:25.514Z,0.40
2023-05-19T13:01:29.390Z,0.30
2023-05-19T13:04:33.100Z,0.43
2023-05-19T13:07:35.624Z,0.68
2023-05-19T13:10:38.926Z,0.47
2023-05-19T13:13:41.169Z,0.50
2023-05-19T13:16:43.434Z,0.50
2023-05-19T13:19:47.130Z,0.40
2023-05-19T13:22:49.700Z,0.30
2023-05-19T13:25:52.823Z,0.40
2023-05-19T13:28:55.160Z,0.50
2023-05-19T13:31:59.138Z,0.40
2023-05-19T13:35:06.629Z,0.47
2023-05-19T13:38:10.297Z,0.45
2023-05-19T13:41:15.977Z,0.50
2023-05-19T13:44:18.476Z,0.55
2023-05-19T13:47:20.774Z,0.50
2023-05-19T13:50:24.392Z,0.30
2023-05-19T13:53:27.345Z,0.30
2023-05-19T13:56:30.698Z,0.68
2023-05-19T13:59:33.062Z,0.32
2023-05-19T14:02:36.951Z,0.25
2023-05-19T14:05:40.524Z,0.30
2023-05-19T14:08:42.839Z,0.50
2023-05-19T14:11:45.020Z,0.40
2023-05-19T14:14:49.063Z,0.35
2023-05-19T14:17:52.903Z,0.38
2023-05-19T14:20:56.820Z,0.60
2023-05-19T14:23:59.164Z,0.40
2023-05-19T14:27:01.477Z,0.50
2023-05-19T14:30:04.755Z,0.30
2023-05-19T14:33:07.547Z,0.40
2023-05-19T14:36:11.448Z,0.40
2023-05-19T14:39:14.205Z,0.40
2023-05-19T14:42:17.069Z,0.52
2023-05-19T14:45:19.358Z,0.30
2023-05-19T14:48:21.831Z,0.30
2023-05-19T14:51:25.441Z,0.40
2023-05-19T14:54:28.070Z,0.50
2023-05-19T14:57:30.600Z,0.30
2023-05-19T15:00:33.099Z,0.25
2023-05-19T15:03:35.885Z,0.20
2023-05-19T15:06:39.539Z,0.40
2023-05-19T15:09:41.790Z,0.38
2023-05-19T15:12:43.982Z,0.50
2023-05-19T15:15:46.191Z,0.40
2023-05-19T15:18:48.432Z,0.60
2023-05-19T15:21:52.364Z,0.50
2023-05-19T15:24:54.602Z,0.32
2023-05-19T15:27:56.813Z,0.40
2023-05-19T15:30:59.618Z,0.30
2023-05-19T15:34:02.484Z,0.50
2023-05-19T15:37:07.245Z,0.32
2023-05-19T15:40:10.715Z,0.40
2023-05-19T15:43:13.067Z,0.40
2023-05-19T15:46:16.053Z,0.40
2023-05-19T15:49:18.428Z,0.73
2023-05-19T15:52:22.127Z,0.40
2023-05-19T15:55:24.402Z,0.32
2023-05-19T15:58:26.604Z,0.30
2023-05-19T16:01:29.126Z,0.40
2023-05-19T16:04:31.436Z,0.40
2023-05-19T16:07:34.990Z,0.40
2023-05-19T16:10:37.650Z,0.40
2023-05-19T16:13:40.102Z,0.30
2023-05-19T16:16:44.452Z,0.30
2023-05-19T16:19:46.811Z,0.40
2023-05-19T16:22:50.486Z,0.40
2023-05-19T16:25:53.294Z,0.40
2023-05-19T16:28:56.338Z,0.40
2023-05-19T16:31:58.675Z,0.32
2023-05-19T16:35:01.081Z,0.50
2023-05-19T16:38:04.662Z,0.40
2023-05-19T16:41:07.053Z,0.50
2023-05-19T16:44:09.426Z,0.43
2023-05-19T16:47:11.768Z,0.45
2023-05-19T16:50:14.064Z,0.30
2023-05-19T16:53:17.789Z,0.45
2023-05-19T16:56:20.081Z,0.38
2023-05-19T16:59:22.318Z,0.50
2023-05-19T17:02:24.841Z,0.50
2023-05-19T17:05:27.790Z,0.40
2023-05-19T17:08:31.460Z,0.50
2023-05-19T17:11:33.760Z,0.50
2023-05-19T17:14:35.979Z,0.50
2023-05-19T17:17:38.330Z,0.38
2023-05-19T17:20:41.491Z,0.40
2023-05-19T17:23:45.081Z,0.40
2023-05-19T17:26:47.309Z,0.52
2023-05-19T17:29:49.580Z,0.30
2023-05-19T17:32:57.234Z,0.50
2023-05-19T17:36:02.230Z,0.38
2023-05-19T17:39:07.835Z,0.30
2023-05-19T17:42:10.771Z,0.47
2023-05-19T17:45:13.195Z,0.40
2023-05-19T17:48:15.925Z,0.40
2023-05-19T17:51:18.761Z,0.40
2023-05-19T17:54:23.549Z,0.45
2023-05-19T17:57:34.205Z,0.55
2023-05-19T18:01:22.924Z,0.45
2023-05-19T18:05:06.396Z,0.40
2023-05-19T18:08:45.611Z,0.47
2023-05-19T18:12:48.842Z,0.40
2023-05-19T18:16:48.458Z,0.50
2023-05-19T18:20:07.750Z,0.38
2023-05-19T18:23:44.893Z,0.40
2023-05-19T18:26:50.973Z,0.40
2023-05-19T18:30:00.007Z,0.50
2023-05-19T18:33:31.816Z,0.40
2023-05-19T18:36:37.195Z,0.43
2023-05-19T18:39:39.692Z,0.40
2023-05-19T18:42:42.115Z,0.40
2023-05-19T18:45:46.716Z,0.93
2023-05-19T18:48:51.862Z,0.30
2023-05-19T18:52:14.536Z,0.47
2023-05-19T18:55:16.919Z,0.40
2023-05-19T18:58:19.301Z,0.43
2023-05-19T19:01:23.268Z,0.30
2023-05-19T19:04:25.616Z,0.30
2023-05-19T19:07:27.954Z,0.40
2023-05-19T19:10:33.210Z,1.25
2023-05-19T19:13:36.056Z,0.43
2023-05-19T19:16:39.612Z,0.57
2023-05-19T19:19:42.541Z,0.50
2023-05-19T19:22:45.020Z,0.60
2023-05-19T19:25:47.293Z,0.50
2023-05-19T19:28:49.511Z,0.47
2023-05-19T19:31:53.159Z,0.50
2023-05-19T19:34:55.942Z,0.45
2023-05-19T19:37:58.690Z,0.50
2023-05-19T19:41:00.938Z,0.50
2023-05-19T19:44:03.345Z,0.70
2023-05-19T19:47:07.013Z,0.38
2023-05-19T19:50:10.906Z,0.40
2023-05-19T19:53:13.105Z,0.30
2023-05-19T19:56:15.520Z,0.40
2023-05-19T19:59:17.790Z,0.50
2023-05-19T20:02:21.571Z,0.38
2023-05-19T20:05:23.862Z,0.47
2023-05-19T20:08:26.811Z,0.35
2023-05-19T20:11:29.317Z,0.45
2023-05-19T20:14:31.731Z,0.80
2023-05-19T20:17:35.492Z,0.25
2023-05-19T20:20:38.268Z,0.43
2023-05-19T20:23:40.751Z,0.30
2023-05-19T20:26:43.210Z,0.40
2023-05-19T20:29:46.965Z,0.40
2023-05-19T20:32:50.745Z,0.40
2023-05-19T20:35:52.985Z,0.50
2023-05-19T20:38:55.420Z,0.60
2023-05-19T20:41:57.754Z,0.40
2023-05-19T20:45:00.673Z,0.38
2023-05-19T20:48:05.936Z,0.40
2023-05-19T20:51:09.477Z,0.60
2023-05-19T20:54:11.812Z,0.50
2023-05-19T20:57:14.093Z,0.40
2023-05-19T21:00:16.943Z,0.40
2023-05-19T21:03:22.806Z,0.40
2023-05-19T21:06:25.846Z,0.40
2023-05-19T21:09:28.090Z,0.45
2023-05-19T21:12:34.234Z,0.40
2023-05-19T21:15:36.823Z,0.40
2023-05-19T21:18:40.583Z,0.40
2023-05-19T21:21:44.743Z,0.47
2023-05-19T21:24:47.040Z,0.45
2023-05-19T21:27:50.913Z,0.40
2023-05-19T21:30:53.275Z,0.32
2023-05-19T21:33:57.055Z,0.50
2023-05-19T21:36:59.283Z,0.50
2023-05-19T21:40:04.197Z,0.40
2023-05-19T21:43:06.568Z,0.40
2023-05-19T21:46:09.157Z,0.68
2023-05-19T21:49:12.792Z,0.40
2023-05-19T21:52:15.035Z,0.40
2023-05-19T21:55:17.386Z,0.47
2023-05-19T21:58:19.817Z,0.45
2023-05-19T22:01:22.604Z,0.40
2023-05-19T22:04:27.029Z,0.50
2023-05-19T22:07:29.317Z,0.40
2023-05-19T22:10:31.976Z,0.40
2023-05-19T22:13:35.117Z,0.40
2023-05-19T22:16:37.549Z,0.50
2023-05-19T22:19:41.208Z,0.45
2023-05-19T22:22:43.557Z,0.45
2023-05-19T22:25:46.449Z,0.40
2023-05-19T22:28:49.098Z,0.47
2023-05-19T22:31:51.328Z,0.40
2023-05-19T22:34:55.010Z,0.60
2023-05-19T22:37:57.393Z,0.30
2023-05-19T22:40:59.672Z,0.65
2023-05-19T22:44:01.999Z,0.38
2023-05-19T22:47:04.563Z,0.35
2023-05-19T22:50:10.110Z,0.45
2023-05-19T22:53:12.444Z,0.50
2023-05-19T22:56:14.827Z,0.50
2023-05-19T22:59:18.057Z,0.40
2023-05-19T23:02:20.532Z,0.40
2023-05-19T23:05:24.114Z,0.40
2023-05-19T23:08:26.320Z,0.40
2023-05-19T23:11:28.605Z,0.40
2023-05-19T23:14:31.529Z,0.40
2023-05-19T23:17:33.889Z,0.63
2023-05-19T23:20:37.466Z,0.50
2023-05-19T23:23:39.776Z,0.40
2023-05-19T23:26:43.819Z,0.50
2023-05-19T23:29:47.781Z,0.50
2023-05-19T23:32:50.075Z,0.30
2023-05-19T23:35:54.006Z,0.32
2023-05-19T23:38:56.257Z,0.35
2023-05-19T23:41:58.572Z,0.30
2023-05-19T23:45:00.899Z,0.40
2023-05-19T23:48:03.691Z,0.30
2023-05-19T23:51:07.789Z,0.50
2023-05-19T23:54:10.082Z,0.50
2023-05-19T23:57:12.329Z,0.40
